Time;durP1;ratioP1;P1;durP2;ratioP2;P2;SDS_P1;SDS_P2;PMS_P1;PMS_P2;Temp;Humidity;BMP_temperature;BMP_pressure;BME280_temperature;BME280_humidity;BME280_pressure;Samples;Min_cycle;Max_cycle;Signal;HPM_P1;HPM_P2
2022/07/10 00:00:17;;;;;;;6.88;0.95;;;13.50;99.90;;;;;;4999166;28;20712;-80
2022/07/10 00:02:48;;;;;;;4.95;0.90;;;13.60;99.90;;;;;;4998326;28;20477;-80
2022/07/10 00:05:37;;;;;;;3.38;0.55;;;13.60;99.90;;;;;;4985419;28;20386;-80
2022/07/10 00:08:03;;;;;;;1.98;0.50;;;13.70;99.90;;;;;;4998049;28;20034;-80
2022/07/10 00:10:33;;;;;;;4.57;0.52;;;13.60;99.90;;;;;;4997719;28;20144;-79
2022/07/10 00:12:59;;;;;;;5.45;0.77;;;13.60;99.90;;;;;;4996194;28;20050;-79
2022/07/10 00:15:32;;;;;;;6.43;0.50;;;13.60;99.90;;;;;;4998014;28;20053;-79
2022/07/10 00:17:57;;;;;;;3.10;0.52;;;13.40;99.90;;;;;;4996886;28;20133;-79
2022/07/10 00:20:39;;;;;;;4.53;0.55;;;13.40;99.90;;;;;;5015225;28;20093;-79
2022/07/10 00:23:35;;;;;;;4.10;0.50;;;13.30;99.90;;;;;;4990590;28;20046;-80
2022/07/10 00:26:06;;;;;;;3.72;0.40;;;13.30;99.90;;;;;;5010462;28;20077;-79
2022/07/10 00:28:32;;;;;;;7.15;0.85;;;13.20;99.90;;;;;;4994206;28;20046;-79
2022/07/10 00:31:21;;;;;;;6.10;0.60;;;13.10;99.90;;;;;;4997059;28;20065;-79
2022/07/10 00:33:53;;;;;;;3.63;0.55;;;13.10;99.90;;;;;;4996347;28;20412;-79
2022/07/10 00:36:23;;;;;;;7.00;0.50;;;13.10;99.90;;;;;;4992832;28;20042;-80
2022/07/10 00:38:55;;;;;;;7.40;0.70;;;13.10;99.90;;;;;;4994934;28;20327;-79
2022/07/10 00:41:20;;;;;;;5.88;0.68;;;13.10;99.90;;;;;;4995420;28;20034;-80
2022/07/10 00:44:14;;;;;;;4.35;0.40;;;13.10;99.90;;;;;;4996463;28;20068;-79
2022/07/10 00:46:55;;;;;;;;;;;;;;;;;;;;;
2022/07/10 00:49:51;;;;;;;5.80;0.65;;;13.10;99.90;;;;;;4993522;28;20041;-79
2022/07/10 00:52:25;;;;;;;4.53;0.38;;;13.00;99.90;;;;;;4991453;28;20104;-79
2022/07/10 00:54:53;;;;;;;8.05;0.68;;;13.00;99.90;;;;;;4976302;28;20456;-80
2022/07/10 00:57:21;;;;;;;8.50;0.50;;;12.90;99.90;;;;;;4994794;28;20033;-79
2022/07/10 00:59:49;;;;;;;9.45;0.88;;;12.90;99.90;;;;;;4995186;28;20121;-79
2022/07/10 01:02:23;;;;;;;3.97;0.40;;;12.80;99.90;;;;;;4994653;28;20529;-79
2022/07/10 01:04:56;;;;;;;4.60;0.70;;;12.80;99.90;;;;;;4995931;28;20046;-79
2022/07/10 01:07:21;;;;;;;2.03;0.30;;;12.70;99.90;;;;;;4991872;28;20108;-80
2022/07/10 01:09:47;;;;;;;5.90;0.40;;;12.80;99.90;;;;;;4997709;28;20046;-79
2022/07/10 01:12:21;;;;;;;6.00;0.40;;;12.80;99.90;;;;;;4997811;28;20037;-80
2022/07/10 01:14:49;;;;;;;5.20;0.50;;;12.80;99.90;;;;;;4993332;28;20050;-80
2022/07/10 01:17:16;;;;;;;6.68;1.20;;;12.90;99.90;;;;;;4998732;28;20129;-80
2022/07/10 01:19:42;;;;;;;3.78;0.32;;;13.00;99.90;;;;;;4999392;28;20058;-80
2022/07/10 01:22:16;;;;;;;4.88;0.82;;;13.10;99.90;;;;;;4999490;28;20128;-81
2022/07/10 01:24:50;;;;;;;7.00;0.88;;;13.10;99.90;;;;;;4981072;28;20061;-80
2022/07/10 01:27:15;;;;;;;3.70;0.70;;;13.10;99.90;;;;;;4995332;28;20056;-80
2022/07/10 01:29:41;;;;;;;2.38;0.30;;;13.10;99.90;;;;;;4996103;28;20034;-81
2022/07/10 01:32:07;;;;;;;5.57;0.55;;;13.00;99.90;;;;;;4976665;28;20475;-80
2022/07/10 01:34:41;;;;;;;2.53;0.68;;;13.00;99.90;;;;;;4998695;28;20128;-81
2022/07/10 01:37:17;;;;;;;10.32;0.63;;;12.80;99.90;;;;;;4998888;28;20041;-80
2022/07/10 01:40:06;;;;;;;5.38;0.45;;;12.80;99.90;;;;;;4993664;28;20072;-81
2022/07/10 01:42:58;;;;;;;3.85;0.30;;;12.80;99.90;;;;;;5013957;28;20050;-81
2022/07/10 01:45:32;;;;;;;3.40;0.40;;;12.80;99.90;;;;;;4998302;28;20050;-80
2022/07/10 01:47:58;;;;;;;5.53;0.70;;;12.80;99.90;;;;;;5001402;28;20393;-80
2022/07/10 01:50:38;;;;;;;4.00;0.82;;;12.80;99.90;;;;;;4982549;28;20049;-81
2022/07/10 01:53:07;;;;;;;4.63;1.30;;;12.90;99.90;;;;;;5010327;28;20054;-80
2022/07/10 01:55:36;;;;;;;10.65;1.00;;;12.90;99.90;;;;;;4999193;28;20038;-80
2022/07/10 01:58:06;;;;;;;5.63;1.20;;;12.90;99.90;;;;;;5011358;28;20175;-80
2022/07/10 02:00:44;;;;;;;4.80;0.35;;;13.00;99.90;;;;;;4994086;28;20077;-80
2022/07/10 02:05:54;;;;;;;10.63;2.25;;;12.90;99.90;;;;;;4998060;28;20042;-81
2022/07/10 02:08:20;;;;;;;10.15;0.60;;;12.90;99.90;;;;;;4995147;28;20026;-80
2022/07/10 02:10:46;;;;;;;2.92;0.52;;;12.90;99.90;;;;;;4996123;28;20037;-80
2022/07/10 02:13:17;;;;;;;3.50;0.32;;;12.90;99.90;;;;;;4997482;28;20044;-80
2022/07/10 02:15:43;;;;;;;7.40;0.47;;;13.00;99.90;;;;;;4992423;28;20046;-80
2022/07/10 02:18:09;;;;;;;4.32;0.40;;;13.00;99.90;;;;;;4995897;28;20392;-80
2022/07/10 02:20:35;;;;;;;4.97;0.50;;;13.00;99.90;;;;;;5001318;28;20057;-80
2022/07/10 02:23:03;;;;;;;12.00;1.05;;;13.00;99.90;;;;;;5002823;28;20038;-80
2022/07/10 02:25:28;;;;;;;5.60;0.43;;;13.10;99.90;;;;;;5003342;28;20059;-80
2022/07/10 02:27:54;;;;;;;11.43;2.10;;;13.10;99.90;;;;;;5003858;28;20097;-80
2022/07/10 02:30:20;;;;;;;3.85;0.50;;;13.00;99.90;;;;;;5002258;28;20034;-80
2022/07/10 02:32:48;;;;;;;7.72;1.52;;;13.00;99.90;;;;;;5008075;28;20052;-81
2022/07/10 02:35:22;;;;;;;4.60;0.90;;;12.90;99.90;;;;;;5000557;28;20136;-80
2022/07/10 02:37:48;;;;;;;5.63;1.75;;;12.90;99.90;;;;;;4997649;28;20185;-80
2022/07/10 02:40:14;;;;;;;4.40;1.00;;;12.80;99.90;;;;;;4998090;28;20079;-80
2022/07/10 02:42:40;;;;;;;3.03;0.70;;;12.80;99.90;;;;;;4977809;28;20045;-81
2022/07/10 02:45:07;;;;;;;5.13;0.63;;;12.80;99.90;;;;;;4995810;28;20038;-81
2022/07/10 02:47:32;;;;;;;6.47;0.70;;;12.70;99.90;;;;;;4995374;28;20030;-80
2022/07/10 02:50:00;;;;;;;4.03;0.50;;;12.70;99.90;;;;;;4978871;28;20113;-80
2022/07/10 02:52:26;;;;;;;4.70;0.70;;;12.70;99.90;;;;;;4992006;28;20077;-81
2022/07/10 02:54:52;;;;;;;3.90;0.75;;;12.70;99.90;;;;;;4994096;28;20038;-81
2022/07/10 02:57:18;;;;;;;5.13;0.60;;;12.70;99.90;;;;;;4994073;28;20052;-82
2022/07/10 02:59:44;;;;;;;8.20;0.60;;;12.70;99.90;;;;;;4992663;28;20042;-81
2022/07/10 03:02:12;;;;;;;6.18;0.50;;;12.60;99.90;;;;;;4992449;28;20041;-81
2022/07/10 03:04:39;;;;;;;5.72;0.68;;;12.50;99.90;;;;;;4976516;28;20049;-81
2022/07/10 03:07:05;;;;;;;3.08;0.50;;;12.50;99.90;;;;;;4995384;28;20122;-81
2022/07/10 03:09:36;;;;;;;7.43;0.85;;;12.50;99.90;;;;;;4996131;28;20061;-81
2022/07/10 03:12:28;;;;;;;8.77;0.90;;;12.40;99.90;;;;;;4994614;28;20098;-81
2022/07/10 03:14:59;;;;;;;3.60;0.68;;;12.30;99.90;;;;;;4994264;28;20504;-81
2022/07/10 03:17:29;;;;;;;5.53;1.05;;;12.20;99.90;;;;;;4995561;28;20125;-81
2022/07/10 03:19:55;;;;;;;4.10;0.30;;;12.20;99.90;;;;;;4994968;28;20038;-81
2022/07/10 03:22:23;;;;;;;3.78;0.50;;;12.10;99.90;;;;;;4991727;28;20053;-81
2022/07/10 03:24:49;;;;;;;3.50;0.45;;;12.00;99.90;;;;;;4992028;28;20092;-82
2022/07/10 03:27:15;;;;;;;7.05;0.75;;;12.00;99.90;;;;;;4993675;28;20349;-81
2022/07/10 03:29:43;;;;;;;6.13;0.57;;;11.90;99.90;;;;;;4995524;28;20089;-82
2022/07/10 03:32:09;;;;;;;5.13;0.70;;;11.90;99.90;;;;;;4996343;28;20042;-81
2022/07/10 03:34:34;;;;;;;8.15;0.70;;;11.90;99.90;;;;;;4997002;28;20092;-81
2022/07/10 03:37:02;;;;;;;9.05;1.13;;;11.90;99.90;;;;;;5001185;28;20496;-81
2022/07/10 03:39:28;;;;;;;7.82;0.63;;;11.90;99.90;;;;;;4999932;28;20064;-81
2022/07/10 03:42:09;;;;;;;3.30;0.73;;;11.90;99.90;;;;;;5000010;28;20057;-82
2022/07/10 03:45:08;;;;;;;3.42;0.52;;;12.00;99.90;;;;;;4998166;28;20034;-81
2022/07/10 03:47:46;;;;;;;5.50;1.15;;;12.00;99.90;;;;;;4996422;28;20166;-81
2022/07/10 03:50:35;;;;;;;10.32;2.30;;;12.00;99.90;;;;;;4997946;28;20049;-81
2022/07/10 03:53:03;;;;;;;4.07;0.47;;;12.10;99.90;;;;;;4998391;28;20096;-82
2022/07/10 03:55:35;;;;;;;7.47;0.85;;;12.10;99.90;;;;;;4997009;28;20034;-82
2022/07/10 03:58:10;;;;;;;7.30;2.45;;;12.10;99.90;;;;;;4980346;28;20042;-81
2022/07/10 04:01:02;;;;;;;6.20;0.80;;;12.10;99.90;;;;;;4996804;28;20122;-82
2022/07/10 04:03:53;;;;;;;10.32;1.10;;;12.20;99.90;;;;;;4995456;28;20074;-81
2022/07/10 04:06:21;;;;;;;2.25;0.70;;;12.30;99.90;;;;;;4996392;28;20042;-81
2022/07/10 04:09:36;;;;;;;8.15;0.60;;;12.40;99.90;;;;;;4983086;28;20037;-82
2022/07/10 04:12:14;;;;;;;7.10;0.88;;;12.60;99.90;;;;;;5003970;28;20054;-81
2022/07/10 04:14:48;;;;;;;5.07;0.75;;;12.70;99.90;;;;;;4978198;28;20045;-82
2022/07/10 04:17:13;;;;;;;2.42;0.55;;;12.90;99.90;;;;;;4981588;28;20056;-81
2022/07/10 04:19:41;;;;;;;5.93;0.50;;;13.10;99.90;;;;;;4998076;28;20034;-82
2022/07/10 04:22:07;;;;;;;7.07;0.50;;;13.10;99.90;;;;;;4994929;28;20038;-82
2022/07/10 04:27:59;;;;;;;4.38;0.32;;;13.30;99.90;;;;;;5016593;28;20065;-82
2022/07/10 04:30:28;;;;;;;5.68;0.50;;;13.40;99.90;;;;;;4995216;28;20116;-82
2022/07/10 04:32:58;;;;;;;6.15;0.40;;;13.50;99.90;;;;;;4997465;28;20048;-81
2022/07/10 04:35:37;;;;;;;7.43;1.05;;;13.60;99.90;;;;;;4997377;28;20101;-81
2022/07/10 04:38:11;;;;;;;4.60;0.50;;;13.50;99.90;;;;;;4996358;28;20128;-81
2022/07/10 04:40:37;;;;;;;5.85;0.82;;;13.70;99.90;;;;;;4992753;28;20146;-81
2022/07/10 04:43:03;;;;;;;5.43;1.02;;;13.60;99.90;;;;;;4999123;28;20090;-81
2022/07/10 04:45:31;;;;;;;5.57;0.73;;;13.70;99.90;;;;;;4999440;28;20080;-80
2022/07/10 04:48:06;;;;;;;5.25;0.60;;;13.70;99.90;;;;;;4997453;28;20038;-81
2022/07/10 04:50:32;;;;;;;9.05;0.70;;;13.80;99.90;;;;;;5000450;28;20045;-81
2022/07/10 04:52:58;;;;;;;3.63;0.52;;;13.80;99.90;;;;;;4991561;28;20061;-80
2022/07/10 04:55:24;;;;;;;6.35;0.50;;;13.90;99.90;;;;;;5000172;28;20412;-81
2022/07/10 04:57:49;;;;;;;4.18;0.55;;;13.90;99.90;;;;;;4995932;28;20068;-81
2022/07/10 05:00:18;;;;;;;4.43;0.50;;;13.90;99.90;;;;;;5002629;28;20037;-81
2022/07/10 05:02:44;;;;;;;3.28;0.40;;;14.00;99.90;;;;;;4991728;28;20050;-81
2022/07/10 05:05:10;;;;;;;4.05;0.40;;;14.10;99.90;;;;;;4983980;28;20053;-80
2022/07/10 05:07:35;;;;;;;4.13;0.70;;;14.10;99.90;;;;;;5000532;28;20509;-80
2022/07/10 05:10:01;;;;;;;3.33;0.35;;;14.20;99.90;;;;;;4989208;28;20045;-80
2022/07/10 05:12:27;;;;;;;3.83;0.40;;;14.10;99.90;;;;;;5000940;28;20037;-80
2022/07/10 05:14:52;;;;;;;6.30;1.48;;;14.20;99.90;;;;;;4998172;28;20035;-80
2022/07/10 05:17:18;;;;;;;3.63;0.50;;;14.20;99.90;;;;;;4998448;28;20301;-80
2022/07/10 05:19:43;;;;;;;4.68;0.43;;;14.20;99.90;;;;;;4976850;28;20042;-80
2022/07/10 05:22:09;;;;;;;4.22;0.30;;;14.20;99.90;;;;;;5018824;28;20057;-80
2022/07/10 05:24:36;;;;;;;6.28;0.88;;;14.10;99.90;;;;;;4993232;28;20042;-80
2022/07/10 05:27:02;;;;;;;3.58;0.28;;;14.20;99.90;;;;;;4991448;28;20045;-80
2022/07/10 05:29:28;;;;;;;3.90;0.70;;;14.20;99.90;;;;;;4990053;28;20042;-80
2022/07/10 05:31:53;;;;;;;5.72;0.40;;;14.30;99.90;;;;;;4995847;28;20044;-80
2022/07/10 05:34:19;;;;;;;4.72;0.35;;;14.30;99.90;;;;;;5014065;28;20049;-80
2022/07/10 05:36:48;;;;;;;6.70;0.98;;;14.40;99.90;;;;;;4984814;28;20107;-80
2022/07/10 05:39:13;;;;;;;5.30;0.50;;;14.50;99.90;;;;;;4994333;28;20038;-80
2022/07/10 05:41:39;;;;;;;4.07;0.40;;;14.60;99.90;;;;;;4991010;28;20077;-80
2022/07/10 05:44:04;;;;;;;5.03;0.57;;;14.60;99.90;;;;;;4993827;28;20069;-80
2022/07/10 05:46:30;;;;;;;4.90;1.08;;;14.80;99.90;;;;;;4992097;28;20039;-80
2022/07/10 05:48:55;;;;;;;3.80;0.55;;;14.80;99.90;;;;;;4993724;28;20049;-81
2022/07/10 05:51:21;;;;;;;4.97;0.50;;;14.90;99.90;;;;;;4994085;28;20108;-79
2022/07/10 05:53:47;;;;;;;6.65;0.50;;;15.00;99.90;;;;;;4982462;28;20038;-80
2022/07/10 05:56:14;;;;;;;5.15;0.80;;;15.10;99.90;;;;;;4999082;28;20121;-80
2022/07/10 05:58:39;;;;;;;4.70;0.52;;;15.10;99.90;;;;;;4975441;28;20088;-80
2022/07/10 06:01:05;;;;;;;4.65;0.40;;;15.20;99.90;;;;;;4997879;28;20453;-80
2022/07/10 06:03:30;;;;;;;8.13;1.17;;;15.20;99.90;;;;;;4986142;28;20050;-80
2022/07/10 06:05:56;;;;;;;2.53;0.43;;;15.20;99.90;;;;;;5011772;28;20041;-80
2022/07/10 06:08:21;;;;;;;4.72;0.68;;;15.30;99.90;;;;;;4990940;28;20034;-80
2022/07/10 06:10:47;;;;;;;4.63;0.93;;;15.40;99.90;;;;;;5013899;28;20447;-80
2022/07/10 06:13:13;;;;;;;4.30;0.50;;;15.50;99.90;;;;;;4991639;28;20069;-80
2022/07/10 06:15:39;;;;;;;3.63;0.40;;;15.50;99.90;;;;;;4994680;28;20064;-80
2022/07/10 06:18:04;;;;;;;4.65;0.60;;;15.60;99.90;;;;;;4992764;28;20107;-80
2022/07/10 06:20:31;;;;;;;7.30;0.90;;;15.70;99.90;;;;;;4991361;28;20042;-80
2022/07/10 06:22:57;;;;;;;8.65;0.70;;;15.70;99.90;;;;;;4991853;28;20038;-80
2022/07/10 06:25:23;;;;;;;3.88;0.65;;;15.70;99.90;;;;;;4990704;28;20038;-80
2022/07/10 06:27:48;;;;;;;4.22;1.17;;;15.80;99.90;;;;;;4992718;28;20026;-80
2022/07/10 06:30:14;;;;;;;2.40;0.30;;;15.80;99.90;;;;;;4981137;28;20034;-80
2022/07/10 06:32:40;;;;;;;3.90;0.40;;;15.80;99.90;;;;;;4990120;28;20038;-80
2022/07/10 06:35:07;;;;;;;5.13;0.50;;;15.90;99.90;;;;;;4993521;28;20105;-80
2022/07/10 06:37:32;;;;;;;5.40;0.95;;;16.00;99.90;;;;;;4990527;28;20042;-80
2022/07/10 06:39:58;;;;;;;4.97;0.63;;;16.00;99.90;;;;;;5002906;28;20052;-80
2022/07/10 06:42:24;;;;;;;5.57;0.90;;;16.10;99.90;;;;;;5001922;28;20041;-80
2022/07/10 06:44:50;;;;;;;2.38;0.50;;;16.10;99.90;;;;;;4999177;28;20074;-80
2022/07/10 06:50:04;;;;;;;5.85;0.73;;;16.00;99.90;;;;;;5001369;28;20045;-80
2022/07/10 06:52:34;;;;;;;3.75;0.70;;;15.90;99.90;;;;;;5000012;28;20038;-80
2022/07/10 06:55:02;;;;;;;2.75;0.30;;;15.90;99.90;;;;;;4991619;28;20049;-81
2022/07/10 06:57:28;;;;;;;4.72;0.52;;;15.90;99.90;;;;;;4989902;28;20096;-81
2022/07/10 06:59:53;;;;;;;6.28;0.60;;;15.90;99.90;;;;;;5012189;28;20496;-81
2022/07/10 07:02:19;;;;;;;4.90;0.50;;;16.00;99.90;;;;;;4995947;28;20038;-80
2022/07/10 07:04:45;;;;;;;6.30;0.77;;;15.90;99.90;;;;;;4996329;28;20045;-80
2022/07/10 07:07:12;;;;;;;10.85;0.70;;;15.90;99.90;;;;;;4981141;28;20038;-81
2022/07/10 07:09:38;;;;;;;4.28;0.30;;;16.00;99.90;;;;;;5001536;28;20095;-81
2022/07/10 07:12:04;;;;;;;5.45;1.55;;;16.00;99.90;;;;;;4997136;28;20038;-81
2022/07/10 07:14:30;;;;;;;11.05;1.38;;;16.10;99.90;;;;;;4999697;28;20801;-81
2022/07/10 07:17:09;;;;;;;6.82;0.68;;;16.20;99.90;;;;;;4999695;28;20077;-80
2022/07/10 07:25:08;;;;;;;;;;;16.10;99.90;;;;;;4993148;28;20049;-79
2022/07/10 07:27:35;;;;;;;5.10;0.60;;;15.90;99.90;;;;;;4996472;28;19995;-80
2022/07/10 07:30:10;;;;;;;6.18;0.82;;;15.80;99.90;;;;;;4997778;28;20184;-81
2022/07/10 07:32:37;;;;;;;1.98;0.60;;;15.70;99.90;;;;;;4991132;28;20137;-82
2022/07/10 07:35:03;;;;;;;4.20;0.40;;;15.60;99.90;;;;;;4997907;28;20041;-81
2022/07/10 07:37:39;;;;;;;4.35;0.70;;;15.50;99.90;;;;;;4996237;28;20508;-81
2022/07/10 07:40:08;;;;;;;5.05;0.82;;;15.60;99.90;;;;;;4991605;28;20049;-81
2022/07/10 07:42:33;;;;;;;4.78;0.57;;;15.70;99.90;;;;;;4993570;28;20062;-83
2022/07/10 07:44:59;;;;;;;5.47;1.65;;;16.00;99.90;;;;;;5001087;28;20022;-84
2022/07/10 07:47:25;;;;;;;9.25;0.90;;;16.30;99.90;;;;;;5000012;28;20065;-85
2022/07/10 07:49:51;;;;;;;5.50;0.70;;;16.60;99.90;;;;;;4999134;28;20053;-84
2022/07/10 07:52:16;;;;;;;5.47;0.73;;;16.80;99.90;;;;;;4992123;28;20042;-83
2022/07/10 07:54:42;;;;;;;4.25;0.40;;;17.10;99.90;;;;;;4973582;28;20042;-84
2022/07/10 07:57:07;;;;;;;4.45;0.55;;;17.40;99.90;;;;;;4981442;28;20042;-83
2022/07/10 07:59:33;;;;;;;5.53;0.50;;;17.50;99.90;;;;;;4976763;28;20155;-82
2022/07/10 08:01:59;;;;;;;7.03;1.27;;;17.70;99.90;;;;;;5003482;28;20106;-82
2022/07/10 08:04:24;;;;;;;2.22;0.40;;;17.90;99.90;;;;;;4996088;28;20233;-82
2022/07/10 08:06:52;;;;;;;5.93;0.40;;;18.00;99.90;;;;;;5006348;28;20042;-82
2022/07/10 08:09:20;;;;;;;3.88;0.30;;;17.80;99.90;;;;;;5009305;28;20050;-81
2022/07/10 08:11:46;;;;;;;3.33;0.30;;;17.60;99.90;;;;;;5004978;28;20116;-81
2022/07/10 08:14:13;;;;;;;4.70;1.48;;;17.50;99.90;;;;;;4989444;28;20062;-80
2022/07/10 08:16:39;;;;;;;1.10;0.30;;;17.30;99.90;;;;;;4991762;28;20054;-80
2022/07/10 08:19:05;;;;;;;1.88;0.65;;;17.20;99.90;;;;;;5004502;28;20034;-79
2022/07/10 08:21:31;;;;;;;2.03;0.60;;;17.00;99.90;;;;;;5007577;28;20042;-79
2022/07/10 08:23:57;;;;;;;2.03;0.40;;;16.90;99.90;;;;;;5005573;28;20041;-79
2022/07/10 08:26:23;;;;;;;3.17;0.25;;;16.90;99.90;;;;;;5012415;28;20031;-78
2022/07/10 08:28:48;;;;;;;2.30;0.30;;;16.80;99.90;;;;;;5002149;28;20045;-79
2022/07/10 08:31:14;;;;;;;0.60;0.10;;;16.90;99.90;;;;;;5000227;28;20030;-79
2022/07/10 08:33:39;;;;;;;3.80;0.22;;;17.00;99.90;;;;;;4996737;28;20450;-79
2022/07/10 08:36:05;;;;;;;6.30;0.75;;;17.10;99.90;;;;;;4974705;28;20129;-79
2022/07/10 08:38:31;;;;;;;2.92;0.63;;;17.10;99.90;;;;;;4964600;28;20042;-79
2022/07/10 08:40:57;;;;;;;3.00;0.20;;;17.20;99.90;;;;;;4971499;28;20501;-79
2022/07/10 08:43:26;;;;;;;2.53;0.30;;;17.30;99.90;;;;;;4979396;28;20100;-79
2022/07/10 08:45:53;;;;;;;4.03;0.17;;;17.20;99.90;;;;;;5007790;28;20349;-79
2022/07/10 08:48:23;;;;;;;3.42;0.15;;;17.30;99.90;;;;;;4975173;28;20046;-79
2022/07/10 08:50:52;;;;;;;1.52;0.10;;;17.30;99.90;;;;;;4993622;28;20081;-79
2022/07/10 08:53:31;;;;;;;1.90;0.45;;;17.20;99.90;;;;;;4970606;28;20389;-80
2022/07/10 08:56:00;;;;;;;0.40;0.10;;;17.10;99.90;;;;;;4996602;28;20400;-79
2022/07/10 08:58:27;;;;;;;1.10;0.28;;;16.90;99.90;;;;;;4983544;28;20069;-79
2022/07/10 09:00:53;;;;;;;1.67;0.25;;;16.90;99.90;;;;;;4986750;28;20069;-79
2022/07/10 09:03:19;;;;;;;2.70;0.10;;;17.00;99.90;;;;;;4998908;28;20045;-79
2022/07/10 09:05:45;;;;;;;2.42;0.10;;;17.10;99.90;;;;;;4991956;28;20046;-79
2022/07/10 09:08:30;;;;;;;2.25;0.13;;;17.20;99.90;;;;;;4990468;28;20049;-79
2022/07/10 09:11:15;;;;;;;2.30;0.10;;;17.40;99.90;;;;;;4997069;28;20117;-79
2022/07/10 09:13:54;;;;;;;1.90;0.10;;;17.60;99.90;;;;;;4988768;28;20160;-79
2022/07/10 09:16:30;;;;;;;1.55;0.15;;;17.70;99.90;;;;;;4988871;28;20045;-79
2022/07/10 09:18:57;;;;;;;0.88;0.10;;;17.70;99.90;;;;;;4997489;28;20512;-79
2022/07/10 09:21:23;;;;;;;0.68;0.10;;;17.70;99.90;;;;;;4992864;28;20048;-79
2022/07/10 09:23:49;;;;;;;2.97;0.20;;;17.70;99.90;;;;;;5003216;28;20122;-79
2022/07/10 09:26:15;;;;;;;6.18;0.20;;;17.70;99.90;;;;;;5003626;28;20042;-82
2022/07/10 09:28:41;;;;;;;2.20;0.10;;;17.60;99.90;;;;;;4976880;28;20042;-83
2022/07/10 09:31:09;;;;;;;1.75;0.17;;;17.50;99.90;;;;;;4991853;28;20034;-82
2022/07/10 09:33:36;;;;;;;2.53;0.10;;;17.30;99.90;;;;;;5007354;28;20045;-81
2022/07/10 09:36:14;;;;;;;2.40;0.60;;;17.00;99.90;;;;;;4999149;28;20056;-81
2022/07/10 09:38:40;;;;;;;2.88;0.73;;;17.10;99.90;;;;;;4994491;28;20045;-81
2022/07/10 09:41:12;;;;;;;0.57;0.20;;;17.30;99.90;;;;;;4986245;28;20052;-81
2022/07/10 09:43:58;;;;;;;2.67;0.20;;;17.60;99.90;;;;;;4982362;28;20053;-81
2022/07/10 09:46:27;;;;;;;1.65;0.30;;;18.00;99.90;;;;;;4993314;28;20046;-81
2022/07/10 09:49:08;;;;;;;2.42;0.10;;;18.20;99.90;;;;;;5003227;28;20069;-80
2022/07/10 09:51:39;;;;;;;1.23;0.50;;;18.30;99.90;;;;;;4999730;28;20038;-81
2022/07/10 09:54:06;;;;;;;2.22;0.10;;;18.20;99.90;;;;;;4996777;28;20044;-80
2022/07/10 09:56:40;;;;;;;1.30;0.10;;;18.00;99.90;;;;;;5007424;28;20508;-80
2022/07/10 09:59:09;;;;;;;4.47;0.40;;;17.90;99.90;;;;;;4992143;28;20046;-80
2022/07/10 10:01:37;;;;;;;1.27;0.10;;;18.10;99.90;;;;;;4995121;28;20188;-80
2022/07/10 10:04:04;;;;;;;2.55;0.10;;;18.10;99.90;;;;;;4997842;28;20057;-79
2022/07/10 10:06:31;;;;;;;1.08;0.38;;;18.10;99.90;;;;;;5000635;28;20044;-82
2022/07/10 10:09:07;;;;;;;2.53;0.10;;;18.10;99.90;;;;;;4993255;28;20501;-82
2022/07/10 10:11:36;;;;;;;2.65;0.47;;;18.20;99.90;;;;;;4999757;28;20125;-81
2022/07/10 10:14:02;;;;;;;2.70;0.10;;;18.20;99.90;;;;;;4997103;28;20289;-82
2022/07/10 10:16:29;;;;;;;1.77;0.20;;;18.30;99.90;;;;;;5009065;28;20046;-84
2022/07/10 10:21:39;;;;;;;1.55;0.30;;;18.30;99.90;;;;;;4981118;28;20087;-82
2022/07/10 10:24:06;;;;;;;3.60;0.43;;;17.90;99.90;;;;;;5011124;28;20046;-82
2022/07/10 10:26:32;;;;;;;4.30;0.40;;;17.60;99.90;;;;;;4988291;28;20038;-82
2022/07/10 10:29:01;;;;;;;0.70;0.20;;;17.30;99.90;;;;;;4990558;28;20112;-83
2022/07/10 10:31:31;;;;;;;1.30;0.10;;;17.20;99.90;;;;;;4980696;28;20038;-85
2022/07/10 10:33:59;;;;;;;2.10;0.20;;;17.20;99.90;;;;;;4992550;28;20038;-82
2022/07/10 10:36:44;;;;;;;1.77;0.57;;;17.10;99.90;;;;;;4976750;28;20062;-83
2022/07/10 10:39:16;;;;;;;1.00;0.10;;;17.00;99.90;;;;;;4960349;28;20124;-84
2022/07/10 10:41:42;;;;;;;1.17;0.10;;;16.90;99.90;;;;;;4969329;28;20061;-83
2022/07/10 10:44:08;;;;;;;3.00;0.20;;;16.80;99.90;;;;;;4974991;28;20405;-84
2022/07/10 10:47:03;;;;;;;0.35;0.10;;;16.80;99.90;;;;;;4970041;28;20076;-84
2022/07/10 10:49:49;;;;;;;1.15;0.10;;;16.80;99.90;;;;;;4988965;28;20050;-82
2022/07/10 10:52:15;;;;;;;0.75;0.10;;;17.10;99.90;;;;;;4965685;28;20057;-84
2022/07/10 10:55:01;;;;;;;2.78;0.30;;;17.40;99.90;;;;;;4989082;28;20042;-85
2022/07/10 10:57:32;;;;;;;0.43;0.10;;;17.80;99.90;;;;;;5004036;28;20053;-86
2022/07/10 11:00:00;;;;;;;3.45;0.30;;;18.10;99.90;;;;;;4985047;28;20126;-84
2022/07/10 11:02:32;;;;;;;1.48;0.22;;;18.60;99.90;;;;;;5002542;28;20042;-83
2022/07/10 11:05:24;;;;;;;0.57;0.35;;;18.80;99.90;;;;;;4998385;28;20034;-83
2022/07/10 11:08:01;;;;;;;1.10;0.25;;;18.90;99.90;;;;;;4984057;28;20073;-84
2022/07/10 11:10:36;;;;;;;1.30;0.20;;;19.10;99.90;;;;;;4998804;28;20030;-82
2022/07/10 11:13:04;;;;;;;1.40;0.10;;;19.00;99.90;;;;;;4982554;28;20037;-81
2022/07/10 11:15:32;;;;;;;1.15;0.10;;;18.80;99.90;;;;;;5002977;28;20042;-82
2022/07/10 11:18:18;;;;;;;2.53;0.30;;;18.50;99.90;;;;;;4997956;28;20061;-83
2022/07/10 11:20:46;;;;;;;2.33;0.40;;;17.90;99.90;;;;;;4971177;28;20546;-81
2022/07/10 11:23:30;;;;;;;1.92;0.10;;;17.50;99.90;;;;;;4990825;28;20034;-82
2022/07/10 11:26:34;;;;;;;0.88;0.20;;;17.30;99.90;;;;;;4996982;28;20493;-82
2022/07/10 11:29:03;;;;;;;0.88;0.10;;;17.40;99.90;;;;;;4989045;28;20121;-83
2022/07/10 11:31:31;;;;;;;2.03;0.20;;;17.50;99.90;;;;;;5011384;28;20045;-85
2022/07/10 11:33:57;;;;;;;2.00;0.20;;;17.50;99.90;;;;;;4990906;28;20038;-84
2022/07/10 11:36:30;;;;;;;3.50;1.45;;;17.60;99.90;;;;;;4986569;28;20034;-85
2022/07/10 11:38:58;;;;;;;12.25;6.22;;;17.70;99.90;;;;;;4969299;28;20038;-83
2022/07/10 11:41:24;;;;;;;12.95;8.35;;;17.90;99.90;;;;;;4998263;28;20045;-84
2022/07/10 11:43:52;;;;;;;11.05;7.15;;;17.90;99.90;;;;;;4984268;28;20482;-82
2022/07/10 11:46:23;;;;;;;20.73;13.20;;;17.90;99.90;;;;;;4995529;28;20485;-82
2022/07/10 11:48:52;;;;;;;4.90;2.00;;;17.70;99.90;;;;;;4977055;28;20044;-84
2022/07/10 11:51:22;;;;;;;2.40;0.70;;;17.50;99.90;;;;;;4979839;28;20049;-84
2022/07/10 11:54:02;;;;;;;1.48;0.43;;;17.40;99.90;;;;;;4982214;28;20041;-84
2022/07/10 11:56:36;;;;;;;2.13;0.47;;;17.50;99.90;;;;;;4999269;28;20293;-84
2022/07/10 11:59:04;;;;;;;4.63;1.55;;;17.60;99.90;;;;;;4981448;28;20081;-85
2022/07/10 12:01:32;;;;;;;2.42;0.50;;;17.70;99.90;;;;;;4970131;28;20092;-84
2022/07/10 12:04:06;;;;;;;3.90;0.80;;;17.90;99.90;;;;;;5003393;28;20038;-85
2022/07/10 12:06:33;;;;;;;4.47;0.47;;;18.20;99.90;;;;;;4994534;28;20042;-84
2022/07/10 12:09:10;;;;;;;4.90;0.88;;;18.50;99.90;;;;;;5002525;28;20126;-83
2022/07/10 12:11:36;;;;;;;3.58;0.73;;;18.90;99.90;;;;;;4985545;28;20038;-81
2022/07/10 12:14:16;;;;;;;5.05;1.08;;;19.10;99.90;;;;;;5004717;28;20445;-82
2022/07/10 12:16:43;;;;;;;2.50;0.68;;;19.00;99.90;;;;;;4999087;28;20099;-83
2022/07/10 12:19:14;;;;;;;3.58;0.68;;;18.80;99.90;;;;;;4992597;28;20392;-81
2022/07/10 12:21:41;;;;;;;2.55;0.40;;;18.60;99.90;;;;;;5000348;28;20105;-83
2022/07/10 12:24:07;;;;;;;1.88;0.35;;;18.10;99.90;;;;;;4990989;28;20087;-83
2022/07/10 12:26:35;;;;;;;2.03;0.30;;;17.80;99.90;;;;;;4993521;28;20038;-84
2022/07/10 12:29:02;;;;;;;4.03;0.60;;;17.70;99.90;;;;;;4981765;28;20034;-84
2022/07/10 12:31:33;;;;;;;2.28;0.63;;;17.70;99.90;;;;;;4988175;28;20042;-87
2022/07/10 12:34:03;;;;;;;2.25;0.50;;;17.80;99.90;;;;;;4969818;28;20069;-84
2022/07/10 12:36:52;;;;;;;4.70;0.60;;;17.90;99.90;;;;;;4977604;28;20041;-85
2022/07/10 12:39:22;;;;;;;2.97;0.40;;;18.00;99.90;;;;;;4988133;28;20485;-84
2022/07/10 12:42:05;;;;;;;2.75;0.40;;;18.00;99.90;;;;;;4991654;28;20077;-85
2022/07/10 12:44:48;;;;;;;4.28;0.50;;;18.00;99.90;;;;;;4991652;28;20100;-84
2022/07/10 12:47:16;;;;;;;3.58;0.60;;;18.10;99.90;;;;;;4979822;28;20049;-82
2022/07/10 12:50:08;;;;;;;3.72;0.93;;;18.00;99.90;;;;;;4991192;28;20038;-83
2022/07/10 12:52:36;;;;;;;2.25;0.70;;;18.00;99.90;;;;;;4989428;28;20231;-82
2022/07/10 12:55:13;;;;;;;3.17;0.47;;;17.90;99.90;;;;;;4985787;28;20039;-81
2022/07/10 12:57:56;;;;;;;1.67;0.35;;;17.90;99.90;;;;;;4969901;28;20042;-82
2022/07/10 13:00:24;;;;;;;2.63;0.95;;;17.90;99.90;;;;;;4995175;28;20121;-84
2022/07/10 13:02:58;;;;;;;1.58;0.40;;;18.00;99.90;;;;;;4972736;28;20056;-85
2022/07/10 13:05:35;;;;;;;2.78;0.65;;;18.00;99.90;;;;;;4983270;28;20049;-84
2022/07/10 13:08:23;;;;;;;3.90;0.57;;;18.10;99.90;;;;;;4994779;28;20488;-84
2022/07/10 13:10:51;;;;;;;2.47;0.80;;;18.20;99.90;;;;;;4992530;28;20048;-84
2022/07/10 13:13:17;;;;;;;1.67;0.40;;;18.20;99.90;;;;;;4992784;28;20118;-84
2022/07/10 13:15:49;;;;;;;1.65;0.40;;;18.20;99.90;;;;;;4986187;28;20126;-82
2022/07/10 13:18:21;;;;;;;2.80;0.88;;;18.20;99.90;;;;;;4982592;28;20038;-84
2022/07/10 13:20:49;;;;;;;4.47;0.60;;;18.20;99.90;;;;;;4988887;28;20096;-83